Time;durP1;ratioP1;P1;durP2;ratioP2;P2;SDS_P1;SDS_P2;PMS_P1;PMS_P2;Temp;Humidity;BMP_temperature;BMP_pressure;BME280_temperature;BME280_humidity;BME280_pressure;Samples;Min_cycle;Max_cycle;Signal;HPM_P1;HPM_P2
2022/09/13 00:01:13;;;;;;;10.90;8.18;;;;;;;;;;5038073;28;20807;-81
2022/09/13 00:03:40;;;;;;;9.30;8.35;;;;;;;;;;5039529;28;20810;-81
2022/09/13 00:06:07;;;;;;;11.30;9.32;;;;;;;;;;5037478;28;20429;-82
2022/09/13 00:08:35;;;;;;;10.20;9.10;;;;;;;;;;5037967;28;20425;-82
2022/09/13 00:11:02;;;;;;;13.13;10.38;;;;;;;;;;5038758;28;20421;-81
2022/09/13 00:13:28;;;;;;;12.17;10.47;;;;;;;;;;5037771;28;20506;-81
2022/09/13 00:15:55;;;;;;;15.00;11.15;;;;;;;;;;5038747;28;20421;-81
2022/09/13 00:18:21;;;;;;;14.05;11.80;;;;;;;;;;5039702;28;20444;-81
2022/09/13 00:20:48;;;;;;;16.53;12.00;;;;;;;;;;5036791;28;20434;-81
2022/09/13 00:23:14;;;;;;;15.57;10.88;;;;;;;;;;5036135;28;20431;-81
2022/09/13 00:25:46;;;;;;;13.90;12.00;;;;;;;;;;5034268;28;21804;-81
2022/09/13 00:28:12;;;;;;;15.40;12.60;;;;;;;;;;5036079;28;20421;-81
2022/09/13 00:30:39;;;;;;;15.30;11.93;;;;;;;;;;5040884;28;20422;-81
2022/09/13 00:33:05;;;;;;;14.73;12.23;;;;;;;;;;5043102;28;20405;-81
2022/09/13 00:35:31;;;;;;;12.15;10.85;;;;;;;;;;5041392;28;20409;-82
2022/09/13 00:37:59;;;;;;;19.98;11.65;;;;;;;;;;5041694;28;21041;-80
2022/09/13 00:40:25;;;;;;;14.85;12.65;;;;;;;;;;5042443;28;20497;-81
2022/09/13 00:42:53;;;;;;;15.85;12.27;;;;;;;;;;5042370;28;20848;-81
2022/09/13 00:45:20;;;;;;;15.13;12.90;;;;;;;;;;5041098;28;20416;-81
2022/09/13 00:47:49;;;;;;;16.77;13.85;;;;;;;;;;5042591;28;20431;-81
2022/09/13 00:50:18;;;;;;;19.83;14.90;;;;;;;;;;5040967;28;20418;-82
2022/09/13 00:52:45;;;;;;;19.52;13.75;;;;;;;;;;5043174;28;20422;-81
2022/09/13 00:55:14;;;;;;;19.35;14.85;;;;;;;;;;5038768;28;20505;-82
2022/09/13 00:57:41;;;;;;;16.73;13.98;;;;;;;;;;5042907;28;20441;-81
2022/09/13 01:00:12;;;;;;;17.58;14.60;;;;;;;;;;5040018;28;20438;-81
2022/09/13 01:02:39;;;;;;;18.40;14.55;;;;;;;;;;5040685;28;20467;-81
2022/09/13 01:05:06;;;;;;;20.02;15.40;;;;;;;;;;5038711;28;20425;-82
2022/09/13 01:07:33;;;;;;;18.75;15.20;;;;;;;;;;5042529;28;20450;-81
2022/09/13 01:10:00;;;;;;;20.67;16.58;;;;;;;;;;5042412;28;20442;-82
2022/09/13 01:12:32;;;;;;;22.17;17.52;;;;;;;;;;5041943;28;20444;-82
2022/09/13 01:14:59;;;;;;;24.05;18.58;;;;;;;;;;5040243;28;20431;-82
2022/09/13 01:17:28;;;;;;;23.77;17.30;;;;;;;;;;5040593;28;20532;-82
2022/09/13 01:19:55;;;;;;;22.98;18.30;;;;;;;;;;5040004;28;20427;-81
2022/09/13 01:22:36;;;;;;;25.17;18.50;;;;;;;;;;5041434;28;20819;-82
2022/09/13 01:25:13;;;;;;;22.92;18.63;;;;;;;;;;5022405;28;20520;-81
2022/09/13 01:27:47;;;;;;;22.63;19.02;;;;;;;;;;5041135;28;20435;-81
2022/09/13 01:30:19;;;;;;;25.38;19.30;;;;;;;;;;5041227;28;20854;-81
2022/09/13 01:33:06;;;;;;;22.47;19.53;;;;;;;;;;5043208;28;20449;-81
2022/09/13 01:35:39;;;;;;;22.73;19.00;;;;;;;;;;5033635;28;20420;-81
2022/09/13 01:38:10;;;;;;;24.23;19.77;;;;;;;;;;5038484;28;20441;-81
2022/09/13 01:40:43;;;;;;;25.85;21.77;;;;;;;;;;5040848;28;20421;-81
2022/09/13 01:43:19;;;;;;;25.48;20.80;;;;;;;;;;5039872;28;20444;-82
2022/09/13 01:45:50;;;;;;;29.52;22.55;;;;;;;;;;5040889;28;20419;-81
2022/09/13 01:48:20;;;;;;;27.03;21.77;;;;;;;;;;5040288;28;21011;-81
2022/09/13 01:50:47;;;;;;;26.27;21.40;;;;;;;;;;5038760;28;20422;-81
2022/09/13 01:53:18;;;;;;;25.80;22.08;;;;;;;;;;5040907;28;20445;-81
2022/09/13 01:55:47;;;;;;;26.55;22.52;;;;;;;;;;5040587;28;20575;-81
2022/09/13 01:58:19;;;;;;;29.38;22.60;;;;;;;;;;5042197;28;20425;-82
2022/09/13 02:00:52;;;;;;;31.67;24.10;;;;;;;;;;5038258;28;20526;-82
2022/09/13 02:03:21;;;;;;;28.33;23.40;;;;;;;;;;5041227;28;20934;-82
2022/09/13 02:05:49;;;;;;;28.10;23.70;;;;;;;;;;5037858;28;20467;-81
2022/09/13 02:08:17;;;;;;;28.80;23.27;;;;;;;;;;5040020;28;20964;-81
2022/09/13 02:10:46;;;;;;;27.20;23.77;;;;;;;;;;5039780;28;20424;-81
2022/09/13 02:13:15;;;;;;;26.52;22.58;;;;;;;;;;5040553;28;20433;-81
2022/09/13 02:15:45;;;;;;;32.80;24.90;;;;;;;;;;5039942;28;20433;-82
2022/09/13 02:18:16;;;;;;;28.55;23.50;;;;;;;;;;5040573;28;20433;-82
2022/09/13 02:20:43;;;;;;;29.40;23.65;;;;;;;;;;5040326;28;20419;-81
2022/09/13 02:23:12;;;;;;;32.03;23.60;;;;;;;;;;5039656;28;21003;-82
2022/09/13 02:25:39;;;;;;;29.55;23.48;;;;;;;;;;5038873;28;20914;-82
2022/09/13 02:28:08;;;;;;;29.95;23.90;;;;;;;;;;5040397;28;20442;-82
2022/09/13 02:30:39;;;;;;;28.17;23.90;;;;;;;;;;5040351;28;20421;-81
2022/09/13 02:33:10;;;;;;;29.10;25.90;;;;;;;;;;5042298;28;20436;-81
2022/09/13 02:35:40;;;;;;;29.35;24.38;;;;;;;;;;5039215;28;20455;-82
2022/09/13 02:38:09;;;;;;;33.90;25.98;;;;;;;;;;5040325;28;20476;-81
2022/09/13 02:40:40;;;;;;;30.58;24.70;;;;;;;;;;5038848;28;20428;-82
2022/09/13 02:43:09;;;;;;;31.63;25.67;;;;;;;;;;5040278;28;20477;-82
2022/09/13 02:45:39;;;;;;;27.38;23.27;;;;;;;;;;5040670;28;20413;-81
2022/09/13 02:48:08;;;;;;;33.58;25.20;;;;;;;;;;5040353;28;20427;-82
2022/09/13 02:50:45;;;;;;;30.00;23.53;;;;;;;;;;5039360;28;20418;-82
2022/09/13 02:53:15;;;;;;;32.60;26.23;;;;;;;;;;5038600;28;20426;-81
2022/09/13 02:55:44;;;;;;;30.23;25.20;;;;;;;;;;5036805;28;20419;-82
2022/09/13 02:58:13;;;;;;;30.33;24.95;;;;;;;;;;5039704;28;20425;-81
2022/09/13 03:00:41;;;;;;;32.73;25.37;;;;;;;;;;5040610;28;20426;-82
2022/09/13 03:03:09;;;;;;;31.73;25.77;;;;;;;;;;5038564;28;20524;-81
2022/09/13 03:05:36;;;;;;;33.22;25.45;;;;;;;;;;5037508;28;20411;-82
2022/09/13 03:08:05;;;;;;;36.13;26.90;;;;;;;;;;5037980;28;20810;-81
2022/09/13 03:10:36;;;;;;;33.13;25.40;;;;;;;;;;5039081;28;20955;-82
2022/09/13 03:13:11;;;;;;;32.45;25.73;;;;;;;;;;5039392;28;20433;-81
2022/09/13 03:15:45;;;;;;;32.13;25.80;;;;;;;;;;5037569;28;20428;-82
2022/09/13 03:18:17;;;;;;;33.17;26.20;;;;;;;;;;5037753;28;20440;-81
2022/09/13 03:20:46;;;;;;;33.33;26.13;;;;;;;;;;5039975;28;20535;-81
2022/09/13 03:23:22;;;;;;;34.53;27.33;;;;;;;;;;5040208;28;20431;-82
2022/09/13 03:25:57;;;;;;;32.20;26.70;;;;;;;;;;5038277;28;20444;-83
2022/09/13 03:28:30;;;;;;;30.90;25.63;;;;;;;;;;5039139;28;20910;-81
2022/09/13 03:31:11;;;;;;;35.47;28.23;;;;;;;;;;5039658;28;20417;-82
2022/09/13 03:33:43;;;;;;;29.25;24.20;;;;;;;;;;5038253;28;20446;-82
2022/09/13 03:36:12;;;;;;;33.13;26.23;;;;;;;;;;5038959;28;20503;-82
2022/09/13 03:38:42;;;;;;;31.67;25.10;;;;;;;;;;5038153;28;20434;-80
2022/09/13 03:41:10;;;;;;;33.05;25.10;;;;;;;;;;5040298;28;21047;-81
2022/09/13 03:43:40;;;;;;;32.33;25.73;;;;;;;;;;5039729;28;20944;-81
2022/09/13 03:46:09;;;;;;;34.03;27.13;;;;;;;;;;5038580;28;20933;-82
2022/09/13 03:48:38;;;;;;;34.60;26.15;;;;;;;;;;5037696;28;20805;-82
2022/09/13 03:51:04;;;;;;;33.03;25.55;;;;;;;;;;5038563;28;20421;-81
2022/09/13 03:53:31;;;;;;;35.55;28.17;;;;;;;;;;5039172;28;20417;-82
2022/09/13 03:55:59;;;;;;;33.22;26.25;;;;;;;;;;5038468;28;20429;-82
2022/09/13 03:58:27;;;;;;;31.70;25.83;;;;;;;;;;5038947;28;20435;-81
2022/09/13 04:00:53;;;;;;;33.38;26.52;;;;;;;;;;5039111;28;21003;-82
2022/09/13 04:03:20;;;;;;;31.65;26.15;;;;;;;;;;5040294;28;20437;-82
2022/09/13 04:05:47;;;;;;;29.38;23.42;;;;;;;;;;5038766;28;20418;-82
2022/09/13 04:08:13;;;;;;;32.10;25.40;;;;;;;;;;5042701;28;20431;-82
2022/09/13 04:10:40;;;;;;;31.27;26.35;;;;;;;;;;5042250;28;20429;-82
2022/09/13 04:13:08;;;;;;;32.53;27.30;;;;;;;;;;5043749;28;20443;-81
2022/09/13 04:15:34;;;;;;;32.70;26.05;;;;;;;;;;5040425;28;20435;-81
2022/09/13 04:18:01;;;;;;;33.88;26.27;;;;;;;;;;5042122;28;20435;-81
2022/09/13 04:20:28;;;;;;;34.67;26.85;;;;;;;;;;5039717;28;20445;-81
2022/09/13 04:22:55;;;;;;;32.57;26.40;;;;;;;;;;5042214;28;20439;-82
2022/09/13 04:25:22;;;;;;;33.88;26.15;;;;;;;;;;5042798;28;20411;-82
2022/09/13 04:27:48;;;;;;;31.97;25.77;;;;;;;;;;5041267;28;20446;-81
2022/09/13 04:30:16;;;;;;;31.73;25.80;;;;;;;;;;5041406;28;20409;-81
2022/09/13 04:32:44;;;;;;;35.58;26.60;;;;;;;;;;5041908;28;20432;-82
2022/09/13 04:35:10;;;;;;;36.88;26.73;;;;;;;;;;5040082;28;20437;-81
2022/09/13 04:37:37;;;;;;;35.67;28.38;;;;;;;;;;5041826;28;20433;-82
2022/09/13 04:40:04;;;;;;;35.47;27.10;;;;;;;;;;5042629;28;20435;-82
2022/09/13 04:42:30;;;;;;;36.58;27.75;;;;;;;;;;5043103;28;20445;-82
2022/09/13 04:44:57;;;;;;;33.95;27.73;;;;;;;;;;5041134;28;20429;-81
2022/09/13 04:47:24;;;;;;;32.65;26.55;;;;;;;;;;5042410;28;20433;-83
2022/09/13 04:49:51;;;;;;;35.83;27.92;;;;;;;;;;5040134;28;20901;-83
2022/09/13 04:52:18;;;;;;;34.15;26.75;;;;;;;;;;5042186;28;20426;-82
2022/09/13 04:54:44;;;;;;;33.00;26.65;;;;;;;;;;5040732;28;20437;-82
2022/09/13 04:57:11;;;;;;;35.65;27.00;;;;;;;;;;5039039;28;20429;-82
2022/09/13 04:59:37;;;;;;;35.40;26.70;;;;;;;;;;5043282;28;20441;-82
2022/09/13 05:02:04;;;;;;;33.47;26.10;;;;;;;;;;5040115;28;20427;-83
2022/09/13 05:04:31;;;;;;;33.97;25.77;;;;;;;;;;5042733;28;20407;-82
2022/09/13 05:06:58;;;;;;;33.47;25.60;;;;;;;;;;5040387;28;20426;-81
2022/09/13 05:09:25;;;;;;;33.63;26.50;;;;;;;;;;5040853;28;20433;-82
2022/09/13 05:11:51;;;;;;;32.05;25.13;;;;;;;;;;5039383;28;20433;-83
2022/09/13 05:14:17;;;;;;;31.20;24.38;;;;;;;;;;5040100;28;20435;-82
2022/09/13 05:16:44;;;;;;;33.40;25.50;;;;;;;;;;5038189;28;20425;-82
2022/09/13 05:19:12;;;;;;;32.30;24.83;;;;;;;;;;5040721;28;20445;-82
2022/09/13 05:21:40;;;;;;;36.53;27.13;;;;;;;;;;5041417;28;20419;-82
2022/09/13 05:24:06;;;;;;;31.33;24.10;;;;;;;;;;5041060;28;20441;-82
2022/09/13 05:26:33;;;;;;;35.38;26.75;;;;;;;;;;5039626;28;20438;-81
2022/09/13 05:28:59;;;;;;;31.98;24.83;;;;;;;;;;5042140;28;20417;-82
2022/09/13 05:31:28;;;;;;;31.35;24.42;;;;;;;;;;5041553;28;20468;-81
2022/09/13 05:33:55;;;;;;;33.78;25.70;;;;;;;;;;5041035;28;20498;-82
2022/09/13 05:36:21;;;;;;;34.15;25.50;;;;;;;;;;5040358;28;20434;-81
2022/09/13 05:38:49;;;;;;;35.30;25.27;;;;;;;;;;5038690;28;20521;-81
2022/09/13 05:41:16;;;;;;;32.60;26.48;;;;;;;;;;5038728;28;20429;-81
2022/09/13 05:43:42;;;;;;;31.33;24.87;;;;;;;;;;5041136;28;20432;-81
2022/09/13 05:46:11;;;;;;;34.55;27.00;;;;;;;;;;5037849;28;20430;-81
2022/09/13 05:48:37;;;;;;;32.53;25.50;;;;;;;;;;5041944;28;20511;-82
2022/09/13 05:51:04;;;;;;;32.22;25.85;;;;;;;;;;5040104;28;20421;-81
2022/09/13 05:53:31;;;;;;;34.10;26.70;;;;;;;;;;5041296;28;20575;-81
2022/09/13 05:55:59;;;;;;;36.00;27.20;;;;;;;;;;5040689;28;20929;-81
2022/09/13 05:58:25;;;;;;;36.67;28.40;;;;;;;;;;5040648;28;20887;-81
2022/09/13 06:00:55;;;;;;;35.50;27.13;;;;;;;;;;5039872;28;20429;-81
2022/09/13 06:03:22;;;;;;;35.17;26.98;;;;;;;;;;5040269;28;20429;-81
2022/09/13 06:05:48;;;;;;;35.10;27.65;;;;;;;;;;5040526;28;20424;-81
2022/09/13 06:08:15;;;;;;;33.63;26.08;;;;;;;;;;5041079;28;20455;-81
2022/09/13 06:10:42;;;;;;;37.10;27.08;;;;;;;;;;5039809;28;20530;-82
2022/09/13 06:13:10;;;;;;;35.47;26.63;;;;;;;;;;5040971;28;20438;-81
2022/09/13 06:15:36;;;;;;;34.50;26.67;;;;;;;;;;5042623;28;20419;-82
2022/09/13 06:18:02;;;;;;;38.83;28.33;;;;;;;;;;5039873;28;20429;-81
2022/09/13 06:20:29;;;;;;;36.78;28.17;;;;;;;;;;5039389;28;20431;-81
2022/09/13 06:22:56;;;;;;;38.15;29.30;;;;;;;;;;5039689;28;20603;-81
2022/09/13 06:25:22;;;;;;;39.17;29.85;;;;;;;;;;5039443;28;20415;-81
2022/09/13 06:27:49;;;;;;;33.45;26.80;;;;;;;;;;5038320;28;20437;-81
2022/09/13 06:30:16;;;;;;;36.00;27.10;;;;;;;;;;5040325;28;20426;-81
2022/09/13 06:32:43;;;;;;;32.40;25.48;;;;;;;;;;5041608;28;20413;-82
2022/09/13 06:35:09;;;;;;;30.77;25.80;;;;;;;;;;5039040;28;20439;-81
2022/09/13 06:37:36;;;;;;;33.92;25.48;;;;;;;;;;5040669;28;20433;-82
2022/09/13 06:40:05;;;;;;;27.88;24.75;;;;;;;;;;5039993;28;20499;-83
2022/09/13 06:42:33;;;;;;;29.38;23.55;;;;;;;;;;5040319;28;20433;-81
2022/09/13 06:44:59;;;;;;;29.60;23.40;;;;;;;;;;5038785;28;20437;-82
2022/09/13 06:47:27;;;;;;;28.93;23.53;;;;;;;;;;5039516;28;20425;-82
2022/09/13 06:49:53;;;;;;;28.42;22.33;;;;;;;;;;5037921;28;20723;-82
2022/09/13 06:52:20;;;;;;;25.60;20.25;;;;;;;;;;5039708;28;20936;-81
2022/09/13 06:54:46;;;;;;;26.15;19.80;;;;;;;;;;5039555;28;20419;-82
2022/09/13 06:57:13;;;;;;;27.97;20.67;;;;;;;;;;5039031;28;20494;-81
2022/09/13 06:59:39;;;;;;;25.70;19.55;;;;;;;;;;5039746;28;20948;-82
2022/09/13 07:02:06;;;;;;;24.00;19.60;;;;;;;;;;5039560;28;20415;-81
2022/09/13 07:04:33;;;;;;;24.17;19.07;;;;;;;;;;5039393;28;20429;-81
2022/09/13 07:07:00;;;;;;;23.42;19.67;;;;;;;;;;5039260;28;20936;-81
2022/09/13 07:09:26;;;;;;;23.73;19.17;;;;;;;;;;5041488;28;20461;-81
2022/09/13 07:11:54;;;;;;;24.48;19.27;;;;;;;;;;5038789;28;20807;-81
2022/09/13 07:14:21;;;;;;;29.73;20.70;;;;;;;;;;5040875;28;20440;-81
2022/09/13 07:16:47;;;;;;;24.25;19.00;;;;;;;;;;5039970;28;20808;-81
2022/09/13 07:19:15;;;;;;;24.27;19.13;;;;;;;;;;5039606;28;20445;-82
2022/09/13 07:21:43;;;;;;;22.52;18.02;;;;;;;;;;5038952;28;20446;-82
2022/09/13 07:24:10;;;;;;;23.70;18.80;;;;;;;;;;5038192;28;20437;-82
2022/09/13 07:26:36;;;;;;;24.65;20.20;;;;;;;;;;5038779;28;20423;-81
2022/09/13 07:29:04;;;;;;;25.50;20.43;;;;;;;;;;5040498;28;20433;-82
2022/09/13 07:31:31;;;;;;;25.33;21.30;;;;;;;;;;5036573;28;20800;-81
2022/09/13 07:33:59;;;;;;;26.08;21.63;;;;;;;;;;5038829;28;20916;-81
2022/09/13 07:36:26;;;;;;;25.67;21.10;;;;;;;;;;5038110;28;20944;-81
2022/09/13 07:38:54;;;;;;;25.20;21.27;;;;;;;;;;5038244;28;20464;-81
2022/09/13 07:41:21;;;;;;;26.38;21.33;;;;;;;;;;5040014;28;20418;-81
2022/09/13 07:43:48;;;;;;;28.48;21.63;;;;;;;;;;5041053;28;20445;-81
2022/09/13 07:46:15;;;;;;;25.15;21.08;;;;;;;;;;5040755;28;20434;-81
2022/09/13 07:48:43;;;;;;;27.25;20.75;;;;;;;;;;5043534;28;20955;-81
2022/09/13 07:51:10;;;;;;;26.05;20.75;;;;;;;;;;5043099;28;20523;-81
2022/09/13 07:53:37;;;;;;;22.20;18.63;;;;;;;;;;5043241;28;20826;-81
2022/09/13 07:56:06;;;;;;;25.73;20.17;;;;;;;;;;5040962;28;20426;-82
2022/09/13 07:58:33;;;;;;;25.43;19.10;;;;;;;;;;5038873;28;20433;-81
2022/09/13 08:01:04;;;;;;;20.48;14.15;;;;;;;;;;5039082;28;20413;-81
2022/09/13 08:03:30;;;;;;;10.70;7.30;;;;;;;;;;5042670;28;20417;-81
2022/09/13 08:05:56;;;;;;;10.80;5.82;;;;;;;;;;5042909;28;21105;-82
2022/09/13 08:08:23;;;;;;;10.98;5.45;;;;;;;;;;5043501;28;20421;-81
2022/09/13 08:10:49;;;;;;;7.20;4.28;;;;;;;;;;5041044;28;20420;-81
2022/09/13 08:13:17;;;;;;;8.63;3.50;;;;;;;;;;5040962;28;20447;-81
2022/09/13 08:15:44;;;;;;;9.33;3.97;;;;;;;;;;5041803;28;20444;-81
2022/09/13 08:18:10;;;;;;;14.57;3.72;;;;;;;;;;5042253;28;20439;-81
2022/09/13 08:20:37;;;;;;;9.25;3.60;;;;;;;;;;5040850;28;20927;-81
2022/09/13 08:23:04;;;;;;;9.88;3.33;;;;;;;;;;5041061;28;20490;-81
2022/09/13 08:25:31;;;;;;;11.73;3.60;;;;;;;;;;5042163;28;20437;-82
2022/09/13 08:27:58;;;;;;;6.33;3.30;;;;;;;;;;5042051;28;20977;-81
2022/09/13 08:30:31;;;;;;;6.43;2.97;;;;;;;;;;5043080;28;20433;-80
2022/09/13 08:32:58;;;;;;;11.45;2.90;;;;;;;;;;5041945;28;20507;-81
2022/09/13 08:35:25;;;;;;;7.60;2.78;;;;;;;;;;5042407;28;20517;-82
2022/09/13 08:37:51;;;;;;;7.22;3.15;;;;;;;;;;5061209;28;20773;-82
2022/09/13 08:40:17;;;;;;;12.60;3.20;;;;;;;;;;5061697;28;20426;-82
2022/09/13 08:42:49;;;;;;;6.55;2.60;;;;;;;;;;5061606;28;20424;-81
2022/09/13 08:45:15;;;;;;;8.43;2.75;;;;;;;;;;5062840;28;20516;-81
2022/09/13 08:47:46;;;;;;;6.80;3.20;;;;;;;;;;5043527;28;20431;-82
2022/09/13 08:50:14;;;;;;;8.02;3.22;;;;;;;;;;5042199;28;20432;-81
2022/09/13 08:52:47;;;;;;;7.65;3.10;;;;;;;;;;5039206;28;20421;-81
2022/09/13 08:55:24;;;;;;;9.48;3.20;;;;;;;;;;5039912;28;20442;-81
2022/09/13 08:57:53;;;;;;;5.95;2.70;;;;;;;;;;5040795;28;20423;-82
2022/09/13 09:00:21;;;;;;;7.88;2.70;;;;;;;;;;5040876;28;20440;-81
2022/09/13 09:03:03;;;;;;;9.23;2.47;;;;;;;;;;5039882;28;20441;-82
2022/09/13 09:05:32;;;;;;;7.78;2.60;;;;;;;;;;5037106;28;20424;-81
2022/09/13 09:07:59;;;;;;;7.88;2.78;;;;;;;;;;5041867;28;20435;-81
2022/09/13 09:10:28;;;;;;;5.57;2.33;;;;;;;;;;5041991;28;20858;-81
2022/09/13 09:12:56;;;;;;;5.72;2.10;;;;;;;;;;5040657;28;20425;-81
2022/09/13 09:15:23;;;;;;;5.80;1.90;;;;;;;;;;5042553;28;20424;-81
2022/09/13 09:17:54;;;;;;;5.05;1.70;;;;;;;;;;5041522;28;20426;-81
2022/09/13 09:20:25;;;;;;;5.40;1.77;;;;;;;;;;5040931;28;20431;-82
2022/09/13 09:22:54;;;;;;;8.27;2.10;;;;;;;;;;5041560;28;20427;-81
2022/09/13 09:25:21;;;;;;;6.70;1.50;;;;;;;;;;5040719;28;20879;-82
2022/09/13 09:27:48;;;;;;;5.15;1.70;;;;;;;;;;5040299;28;20426;-81
2022/09/13 09:30:14;;;;;;;5.10;1.50;;;;;;;;;;5038923;28;20441;-81
2022/09/13 09:32:53;;;;;;;5.10;1.50;;;;;;;;;;5032121;28;20431;-82
2022/09/13 09:35:27;;;;;;;4.63;1.73;;;;;;;;;;5041281;28;20441;-81
2022/09/13 09:38:03;;;;;;;3.08;1.50;;;;;;;;;;5039252;28;20450;-81
2022/09/13 09:40:32;;;;;;;6.95;1.80;;;;;;;;;;5039409;28;20441;-82
2022/09/13 09:42:58;;;;;;;9.13;2.00;;;;;;;;;;5041027;28;20494;-81
2022/09/13 09:45:26;;;;;;;5.00;1.60;;;;;;;;;;5041307;28;20923;-81
2022/09/13 09:47:53;;;;;;;6.47;1.60;;;;;;;;;;5061276;28;20431;-81
2022/09/13 09:50:22;;;;;;;5.72;1.30;;;;;;;;;;5057392;28;20994;-80
2022/09/13 09:52:55;;;;;;;6.00;1.80;;;;;;;;;;5062207;28;20421;-81
2022/09/13 09:55:26;;;;;;;3.17;1.42;;;;;;;;;;5059840;28;20912;-82
2022/09/13 09:57:54;;;;;;;5.40;1.40;;;;;;;;;;5059752;28;20813;-82
2022/09/13 10:00:22;;;;;;;6.65;1.60;;;;;;;;;;5060556;28;20923;-81
2022/09/13 10:02:49;;;;;;;5.70;1.60;;;;;;;;;;5059563;28;20921;-81
2022/09/13 10:05:19;;;;;;;5.22;1.30;;;;;;;;;;5061348;28;20424;-82
2022/09/13 10:07:53;;;;;;;4.72;1.40;;;;;;;;;;5040680;28;20422;-81
2022/09/13 10:10:21;;;;;;;5.15;1.73;;;;;;;;;;5039308;28;20455;-81
2022/09/13 10:12:50;;;;;;;6.93;1.90;;;;;;;;;;5038327;28;20429;-82
2022/09/13 10:15:19;;;;;;;6.28;1.60;;;;;;;;;;5042228;28;20433;-81
2022/09/13 10:18:01;;;;;;;6.03;1.58;;;;;;;;;;5040142;28;20410;-81
2022/09/13 10:20:27;;;;;;;7.53;1.80;;;;;;;;;;5042173;28;20438;-82
2022/09/13 10:23:09;;;;;;;7.70;1.45;;;;;;;;;;5039880;28;20941;-83
2022/09/13 10:25:36;;;;;;;6.45;1.63;;;;;;;;;;5039644;28;20419;-82
2022/09/13 10:28:05;;;;;;;6.38;1.50;;;;;;;;;;5037549;28;21118;-81
2022/09/13 10:30:33;;;;;;;2.97;1.20;;;;;;;;;;5039246;28;20437;-81
2022/09/13 10:33:00;;;;;;;4.68;1.40;;;;;;;;;;5040572;28;20910;-82
2022/09/13 10:35:26;;;;;;;8.02;1.50;;;;;;;;;;5038581;28;20489;-83
2022/09/13 10:37:53;;;;;;;5.60;1.63;;;;;;;;;;5041702;28;20421;-82
2022/09/13 10:40:22;;;;;;;4.40;1.67;;;;;;;;;;5040562;28;20444;-81
2022/09/13 10:42:53;;;;;;;4.95;1.20;;;;;;;;;;5067283;28;20431;-82
2022/09/13 10:45:22;;;;;;;4.30;1.40;;;;;;;;;;5063419;28;20443;-82
2022/09/13 10:47:50;;;;;;;3.47;1.23;;;;;;;;;;5042119;28;20425;-81
2022/09/13 10:50:21;;;;;;;5.15;1.63;;;;;;;;;;5042238;28;20516;-84
2022/09/13 10:52:48;;;;;;;6.70;1.50;;;;;;;;;;5044800;28;20439;-82
2022/09/13 10:55:23;;;;;;;5.60;1.40;;;;;;;;;;5041211;28;20951;-80
2022/09/13 10:57:50;;;;;;;7.20;1.70;;;;;;;;;;5039034;28;20422;-81
2022/09/13 11:00:18;;;;;;;3.83;1.27;;;;;;;;;;5039783;28;20916;-80
2022/09/13 11:02:58;;;;;;;5.65;1.50;;;;;;;;;;5039626;28;20441;-80
2022/09/13 11:05:26;;;;;;;5.32;1.60;;;;;;;;;;5036992;28;20438;-80
2022/09/13 11:08:14;;;;;;;7.65;1.73;;;;;;;;;;5057920;28;20426;-81
2022/09/13 11:10:46;;;;;;;7.93;1.30;;;;;;;;;;5059124;28;20507;-82
2022/09/13 11:13:18;;;;;;;6.85;1.40;;;;;;;;;;5060215;28;20441;-82
2022/09/13 11:15:48;;;;;;;5.38;1.50;;;;;;;;;;5054760;28;21282;-82
2022/09/13 11:18:22;;;;;;;5.00;1.15;;;;;;;;;;5038009;28;20434;-82
2022/09/13 11:20:54;;;;;;;6.68;1.73;;;;;;;;;;5037627;28;20409;-82
2022/09/13 11:23:33;;;;;;;4.50;1.20;;;;;;;;;;5038505;28;20443;-82
2022/09/13 11:26:06;;;;;;;6.38;1.40;;;;;;;;;;5038017;28;20500;-81
2022/09/13 11:28:36;;;;;;;4.60;1.70;;;;;;;;;;5038298;28;20998;-82
2022/09/13 11:31:13;;;;;;;3.97;1.30;;;;;;;;;;5039739;28;20522;-81
2022/09/13 11:33:46;;;;;;;6.85;1.63;;;;;;;;;;5040360;28;20437;-81
2022/09/13 11:36:24;;;;;;;5.90;1.20;;;;;;;;;;5039612;28;20425;-82
2022/09/13 11:38:55;;;;;;;5.03;1.30;;;;;;;;;;5038576;28;20433;-82
2022/09/13 11:41:28;;;;;;;4.72;1.10;;;;;;;;;;5037823;28;20484;-82
2022/09/13 11:43:59;;;;;;;5.13;1.38;;;;;;;;;;5040009;28;20506;-81
2022/09/13 11:46:30;;;;;;;5.60;1.65;;;;;;;;;;5039167;28;20932;-82
2022/09/13 11:49:18;;;;;;;7.22;1.50;;;;;;;;;;5041408;28;20504;-81
2022/09/13 11:51:50;;;;;;;3.53;1.38;;;;;;;;;;5037333;28;20431;-81
2022/09/13 11:54:23;;;;;;;6.50;1.40;;;;;;;;;;5040926;28;20446;-79
2022/09/13 11:56:53;;;;;;;7.00;1.98;;;;;;;;;;5039209;28;20436;-80
2022/09/13 11:59:24;;;;;;;4.43;1.30;;;;;;;;;;5039740;28;20427;-79
2022/09/13 12:01:54;;;;;;;8.60;1.50;;;;;;;;;;5037852;28;20422;-82
2022/09/13 12:04:23;;;;;;;8.10;1.80;;;;;;;;;;5041642;28;20415;-81
2022/09/13 12:06:54;;;;;;;7.60;2.00;;;;;;;;;;5039327;28;20815;-81
2022/09/13 12:09:22;;;;;;;9.00;1.70;;;;;;;;;;5039226;28;20520;-80
2022/09/13 12:11:52;;;;;;;5.97;1.30;;;;;;;;;;5040153;28;20482;-79
2022/09/13 12:14:21;;;;;;;6.68;1.70;;;;;;;;;;5038846;28;20417;-80
2022/09/13 12:16:49;;;;;;;5.53;1.30;;;;;;;;;;5039590;28;20429;-81
2022/09/13 12:19:17;;;;;;;3.60;1.23;;;;;;;;;;5039609;28;20508;-80
2022/09/13 12:21:44;;;;;;;3.60;1.10;;;;;;;;;;5039702;28;20421;-80
2022/09/13 12:24:14;;;;;;;4.10;1.20;;;;;;;;;;5036616;28;20436;-80
2022/09/13 12:26:43;;;;;;;5.13;1.30;;;;;;;;;;5041279;28;20419;-82
2022/09/13 12:29:14;;;;;;;4.88;1.50;;;;;;;;;;5042073;28;20429;-81
2022/09/13 12:31:40;;;;;;;7.32;1.70;;;;;;;;;;5042608;28;20431;-80
2022/09/13 12:34:09;;;;;;;8.83;1.60;;;;;;;;;;5042704;28;20431;-80
2022/09/13 12:36:43;;;;;;;4.37;1.30;;;;;;;;;;5039837;28;20414;-80
2022/09/13 12:39:22;;;;;;;4.50;1.08;;;;;;;;;;5041331;28;20430;-80
2022/09/13 12:41:55;;;;;;;5.40;1.27;;;;;;;;;;5043318;28;20441;-80
2022/09/13 12:44:41;;;;;;;4.63;1.20;;;;;;;;;;5042311;28;20439;-80
2022/09/13 12:47:31;;;;;;;5.72;1.50;;;;;;;;;;5041029;28;20835;-80
2022/09/13 12:50:09;;;;;;;5.93;1.42;;;;;;;;;;5042668;28;20439;-81
2022/09/13 12:52:39;;;;;;;3.67;1.10;;;;;;;;;;5041231;28;20520;-81
2022/09/13 12:55:20;;;;;;;4.90;1.50;;;;;;;;;;5047767;28;20413;-79
2022/09/13 12:57:50;;;;;;;3.10;1.20;;;;;;;;;;5041608;28;20449;-81
2022/09/13 13:00:20;;;;;;;4.47;1.23;;;;;;;;;;5043128;28;20441;-80
2022/09/13 13:02:52;;;;;;;4.60;1.10;;;;;;;;;;5041349;28;20506;-80
2022/09/13 13:05:21;;;;;;;5.93;1.42;;;;;;;;;;5044801;28;20432;-79
2022/09/13 13:07:51;;;;;;;4.63;1.38;;;;;;;;;;5040964;28;20477;-80
2022/09/13 13:10:25;;;;;;;4.80;1.60;;;;;;;;;;5041590;28;20409;-83
2022/09/13 13:12:53;;;;;;;4.60;1.50;;;;;;;;;;5042757;28;20423;-80
2022/09/13 13:15:38;;;;;;;4.10;1.20;;;;;;;;;;5041092;28;20437;-82
2022/09/13 13:18:19;;;;;;;5.97;1.50;;;;;;;;;;5062054;28;20429;-81
2022/09/13 13:21:03;;;;;;;5.40;1.30;;;;;;;;;;5060812;28;20913;-83
2022/09/13 13:23:30;;;;;;;3.60;1.10;;;;;;;;;;5061215;28;20443;-80
2022/09/13 13:26:07;;;;;;;4.78;1.38;;;;;;;;;;5060624;28;20421;-80
2022/09/13 13:29:07;;;;;;;2.67;1.30;;;;;;;;;;5061528;28;20447;-80
2022/09/13 13:31:37;;;;;;;3.57;1.20;;;;;;;;;;4991909;28;20439;-82
2022/09/13 13:34:23;;;;;;;5.75;1.20;;;;;;;;;;4981426;28;20434;-81
2022/09/13 13:36:57;;;;;;;6.18;1.30;;;;;;;;;;5025269;28;21009;-82
2022/09/13 13:39:33;;;;;;;3.40;1.40;;;;;;;;;;5061692;28;20433;-80
2022/09/13 13:42:00;;;;;;;4.30;1.23;;;;;;;;;;5060165;28;20420;-82
2022/09/13 13:44:45;;;;;;;4.65;1.27;;;;;;;;;;5059981;28;20441;-82
2022/09/13 13:47:30;;;;;;;2.38;0.85;;;;;;;;;;5059481;28;20426;-82
2022/09/13 13:50:09;;;;;;;4.73;1.10;;;;;;;;;;5061607;28;20507;-82
2022/09/13 13:52:37;;;;;;;4.35;1.27;;;;;;;;;;5060850;28;20425;-81
2022/09/13 13:55:24;;;;;;;3.42;1.02;;;;;;;;;;5059786;28;20441;-81
2022/09/13 13:57:57;;;;;;;4.70;1.30;;;;;;;;;;5061966;28;20423;-81
2022/09/13 14:00:24;;;;;;;3.92;1.10;;;;;;;;;;5062317;28;20442;-81
2022/09/13 14:02:57;;;;;;;6.32;1.27;;;;;;;;;;5060689;28;20422;-81
2022/09/13 14:05:25;;;;;;;5.22;1.10;;;;;;;;;;5060767;28;20450;-82
2022/09/13 14:08:05;;;;;;;5.25;1.27;;;;;;;;;;5059919;28;20419;-80
2022/09/13 14:10:37;;;;;;;5.60;1.50;;;;;;;;;;5060250;28;20980;-81
2022/09/13 14:13:18;;;;;;;4.23;1.30;;;;;;;;;;5061670;28;20431;-80
2022/09/13 14:15:49;;;;;;;5.40;1.30;;;;;;;;;;5054118;28;20923;-81
2022/09/13 14:18:46;;;;;;;4.70;1.10;;;;;;;;;;5041344;28;20552;-80
2022/09/13 14:21:20;;;;;;;6.88;1.90;;;;;;;;;;5039187;28;20428;-81
2022/09/13 14:23:48;;;;;;;6.25;1.40;;;;;;;;;;5040745;28;20441;-81
2022/09/13 14:26:14;;;;;;;5.05;1.60;;;;;;;;;;5039892;28;20425;-81
2022/09/13 14:28:41;;;;;;;6.47;2.00;;;;;;;;;;5040776;28;20449;-80
2022/09/13 14:31:07;;;;;;;7.68;2.22;;;;;;;;;;5038068;28;20419;-80
2022/09/13 14:33:35;;;;;;;14.35;2.70;;;;;;;;;;5042440;28;20411;-79
2022/09/13 14:36:03;;;;;;;7.07;2.15;;;;;;;;;;5040232;28;20422;-80
2022/09/13 14:38:34;;;;;;;6.95;2.05;;;;;;;;;;5038976;28;20431;-80
2022/09/13 14:41:03;;;;;;;7.65;2.17;;;;;;;;;;5038326;28;20869;-81
2022/09/13 14:43:30;;;;;;;11.30;2.60;;;;;;;;;;5042130;28;20994;-80